createdAt,value
2018-05-23T00:00:12.177Z,0
2018-05-23T00:01:12.234Z,0
2018-05-23T00:02:12.246Z,0
2018-05-23T00:03:12.257Z,0
2018-05-23T00:04:12.305Z,0
2018-05-23T00:05:12.280Z,0
2018-05-23T00:06:12.207Z,0
2018-05-23T00:07:12.218Z,0
2018-05-23T00:08:12.307Z,0
2018-05-23T00:09:12.256Z,0
2018-05-23T00:10:12.287Z,0
2018-05-23T00:11:12.200Z,0
2018-05-23T00:12:12.190Z,0
2018-05-23T00:13:12.310Z,0
2018-05-23T00:14:12.190Z,0
2018-05-23T00:15:12.322Z,0
2018-05-23T00:16:12.362Z,0
2018-05-23T00:17:12.288Z,0
2018-05-23T00:18:12.286Z,0
2018-05-23T00:19:12.362Z,0
2018-05-23T00:20:12.313Z,0
2018-05-23T00:21:12.213Z,0
2018-05-23T00:22:12.294Z,0
2018-05-23T00:23:12.294Z,0
2018-05-23T00:24:12.290Z,0
2018-05-23T00:25:12.259Z,0
2018-05-23T00:26:12.260Z,0
2018-05-23T00:27:12.236Z,0
2018-05-23T00:28:12.335Z,0
2018-05-23T00:29:12.283Z,0
2018-05-23T00:30:12.288Z,0
2018-05-23T00:31:12.285Z,0
2018-05-23T00:32:12.286Z,0
2018-05-23T00:33:12.293Z,0
2018-05-23T00:34:12.291Z,0
2018-05-23T00:35:12.202Z,0
2018-05-23T00:36:12.206Z,0
2018-05-23T00:37:12.294Z,0
2018-05-23T00:38:12.223Z,0
2018-05-23T00:39:12.339Z,0
2018-05-23T00:40:12.339Z,0
2018-05-23T00:41:12.301Z,0
2018-05-23T00:42:12.320Z,0
2018-05-23T00:43:12.325Z,0
2018-05-23T00:44:12.271Z,0
2018-05-23T00:45:12.229Z,0
2018-05-23T00:46:12.205Z,0
2018-05-23T00:47:12.263Z,0
2018-05-23T00:48:12.277Z,0
2018-05-23T00:49:12.212Z,0
2018-05-23T00:50:12.340Z,0
2018-05-23T00:51:12.245Z,0
2018-05-23T00:52:12.286Z,0
2018-05-23T00:53:12.290Z,0
2018-05-23T00:54:12.351Z,0
2018-05-23T00:55:12.241Z,0
2018-05-23T00:56:12.286Z,0
2018-05-23T00:57:12.233Z,0
2018-05-23T00:58:12.346Z,0
2018-05-23T00:59:12.254Z,0
2018-05-23T01:00:12.333Z,0
2018-05-23T01:01:12.336Z,0
2018-05-23T01:02:12.348Z,0
2018-05-23T01:03:12.346Z,0
2018-05-23T01:04:12.300Z,0
2018-05-23T01:05:12.378Z,0
2018-05-23T01:06:12.220Z,0
2018-05-23T01:07:12.289Z,0
2018-05-23T01:08:12.230Z,0
2018-05-23T01:09:12.340Z,0
2018-05-23T01:10:12.321Z,0
2018-05-23T01:11:12.322Z,0
2018-05-23T01:12:12.323Z,0
2018-05-23T01:13:12.258Z,0
2018-05-23T01:14:12.339Z,0
2018-05-23T01:15:12.263Z,0
2018-05-23T01:16:12.222Z,0
2018-05-23T01:17:12.261Z,0
2018-05-23T01:18:12.328Z,0
2018-05-23T01:19:12.327Z,0
2018-05-23T01:20:12.230Z,0
2018-05-23T01:21:12.327Z,0
2018-05-23T01:22:12.364Z,0
2018-05-23T01:23:12.268Z,0
2018-05-23T01:24:12.287Z,0
2018-05-23T01:25:12.369Z,0
2018-05-23T01:26:12.300Z,0
2018-05-23T01:27:12.316Z,0
2018-05-23T01:28:12.337Z,0
2018-05-23T01:29:12.352Z,0
2018-05-23T01:30:12.360Z,0
2018-05-23T01:31:12.340Z,0
2018-05-23T01:32:12.361Z,0
2018-05-23T01:33:12.311Z,0
2018-05-23T01:34:12.336Z,0
2018-05-23T01:35:12.311Z,0
2018-05-23T01:36:12.358Z,0
2018-05-23T01:37:12.307Z,0
2018-05-23T01:38:12.257Z,0
2018-05-23T01:39:12.342Z,0
2018-05-23T01:40:12.282Z,0
2018-05-23T01:41:12.268Z,0
2018-05-23T01:42:12.344Z,0
2018-05-23T01:43:12.317Z,0
2018-05-23T01:44:12.339Z,0
2018-05-23T01:45:12.307Z,0
2018-05-23T01:46:12.246Z,0
2018-05-23T01:47:12.379Z,0
2018-05-23T01:48:12.351Z,0
2018-05-23T01:49:12.347Z,0
2018-05-23T01:50:12.351Z,0
2018-05-23T01:51:12.351Z,0
2018-05-23T01:52:12.319Z,0
2018-05-23T01:53:12.350Z,0
2018-05-23T01:54:12.291Z,0
2018-05-23T01:55:12.356Z,0
2018-05-23T01:56:12.284Z,0
2018-05-23T01:57:12.354Z,0
2018-05-23T01:58:12.290Z,0
2018-05-23T01:59:12.275Z,0
2018-05-23T02:00:12.392Z,0
2018-05-23T02:01:12.372Z,0
2018-05-23T02:02:12.380Z,0
2018-05-23T02:03:12.359Z,0
2018-05-23T02:04:12.393Z,0
2018-05-23T02:05:12.331Z,0
2018-05-23T02:06:12.358Z,0
2018-05-23T02:07:12.297Z,0
2018-05-23T02:08:12.399Z,0
2018-05-23T02:09:12.350Z,0
2018-05-23T02:10:12.268Z,0
2018-05-23T02:11:12.353Z,0
2018-05-23T02:12:12.306Z,0
2018-05-23T02:13:12.241Z,0
2018-05-23T02:14:12.270Z,0
2018-05-23T02:15:12.268Z,0
2018-05-23T02:16:12.349Z,0
2018-05-23T02:17:12.309Z,0
2018-05-23T02:18:12.422Z,0
2018-05-23T02:19:12.273Z,0
2018-05-23T02:20:12.272Z,0
2018-05-23T02:21:12.285Z,0
2018-05-23T02:22:12.413Z,0
2018-05-23T02:23:12.390Z,0
2018-05-23T02:24:12.337Z,0
2018-05-23T02:25:12.396Z,0
2018-05-23T02:26:12.337Z,0
2018-05-23T02:27:12.274Z,0
2018-05-23T02:28:12.276Z,0
2018-05-23T02:29:12.312Z,0
2018-05-23T02:30:12.375Z,0
2018-05-23T02:31:12.318Z,0
2018-05-23T02:32:12.376Z,0
2018-05-23T02:33:12.381Z,0
2018-05-23T02:34:12.308Z,0
2018-05-23T02:35:12.376Z,0
2018-05-23T02:36:12.378Z,0
2018-05-23T02:37:12.381Z,0
2018-05-23T02:38:12.312Z,0
2018-05-23T02:39:12.283Z,0
2018-05-23T02:40:12.299Z,0
2018-05-23T02:41:12.396Z,0
2018-05-23T02:42:12.407Z,0
2018-05-23T02:43:12.284Z,0
2018-05-23T02:44:12.321Z,0
2018-05-23T02:45:12.363Z,0
2018-05-23T02:46:12.349Z,0
2018-05-23T02:47:12.384Z,0
2018-05-23T02:48:12.356Z,0
2018-05-23T02:49:12.286Z,0
2018-05-23T02:50:12.386Z,0
2018-05-23T02:51:12.409Z,0
2018-05-23T02:52:12.381Z,0
2018-05-23T02:53:12.311Z,0
2018-05-23T02:54:12.431Z,0
2018-05-23T02:55:12.353Z,0
2018-05-23T02:56:12.334Z,0
2018-05-23T02:57:12.370Z,0
2018-05-23T02:58:12.365Z,0
2018-05-23T02:59:12.295Z,0
2018-05-23T03:00:12.411Z,0
2018-05-23T03:01:12.376Z,0
2018-05-23T03:02:12.399Z,0
2018-05-23T03:03:12.431Z,0
2018-05-23T03:04:12.336Z,0
2018-05-23T03:05:12.431Z,0
2018-05-23T03:06:12.419Z,0
2018-05-23T03:07:12.361Z,0
2018-05-23T03:08:12.354Z,0
2018-05-23T03:09:12.401Z,0
2018-05-23T03:10:12.397Z,0
2018-05-23T03:11:12.334Z,0
2018-05-23T03:12:12.335Z,0
2018-05-23T03:13:12.334Z,5
2018-05-23T03:14:12.404Z,5
2018-05-23T03:15:12.375Z,5
2018-05-23T03:16:12.338Z,5
2018-05-23T03:17:12.405Z,5
2018-05-23T03:18:12.404Z,5
2018-05-23T03:19:12.338Z,5
2018-05-23T03:20:12.350Z,5
2018-05-23T03:21:12.466Z,11
2018-05-23T03:22:12.355Z,11
2018-05-23T03:23:12.401Z,11
2018-05-23T03:24:12.329Z,11
2018-05-23T03:25:12.361Z,11
2018-05-23T03:26:12.377Z,16
2018-05-23T03:27:12.316Z,16
2018-05-23T03:28:12.445Z,16
2018-05-23T03:29:12.409Z,16
2018-05-23T03:30:12.355Z,16
2018-05-23T03:31:12.333Z,22
2018-05-23T03:32:12.351Z,22
2018-05-23T03:33:12.447Z,22
2018-05-23T03:34:12.437Z,22
2018-05-23T03:35:12.376Z,22
2018-05-23T03:36:12.415Z,28
2018-05-23T03:37:12.456Z,28
2018-05-23T03:38:12.452Z,28
2018-05-23T03:39:12.325Z,28
2018-05-23T03:40:12.355Z,33
2018-05-23T03:41:12.355Z,33
2018-05-23T03:42:12.423Z,33
2018-05-23T03:43:12.357Z,33
2018-05-23T03:44:12.355Z,33
2018-05-23T03:45:12.427Z,39
2018-05-23T03:46:12.426Z,39
2018-05-23T03:47:12.423Z,39
2018-05-23T03:48:12.426Z,45
2018-05-23T03:49:12.429Z,45
2018-05-23T03:50:12.331Z,50
2018-05-23T03:51:12.391Z,56
2018-05-23T03:52:12.363Z,61
2018-05-23T03:53:12.443Z,67
2018-05-23T03:54:12.380Z,73
2018-05-23T03:55:12.471Z,78
2018-05-23T03:56:12.332Z,84
2018-05-23T03:57:12.352Z,95
2018-05-23T03:58:12.459Z,101
2018-05-23T03:59:12.387Z,106
2018-05-23T04:00:12.432Z,106
2018-05-23T04:01:12.321Z,112
2018-05-23T04:02:12.474Z,118
2018-05-23T04:03:12.369Z,123
2018-05-23T04:04:12.434Z,123
2018-05-23T04:05:12.366Z,129
2018-05-23T04:06:12.402Z,129
2018-05-23T04:07:12.371Z,129
2018-05-23T04:08:12.557Z,129
2018-05-23T04:09:12.403Z,129
2018-05-23T04:10:12.419Z,129
2018-05-23T04:11:12.424Z,129
2018-05-23T04:12:12.345Z,123
2018-05-23T04:13:12.442Z,123
2018-05-23T04:14:12.322Z,129
2018-05-23T04:15:12.391Z,135
2018-05-23T04:16:12.342Z,140
2018-05-23T04:17:12.425Z,151
2018-05-23T04:18:12.511Z,163
2018-05-23T04:19:12.377Z,174
2018-05-23T04:20:12.431Z,180
2018-05-23T04:21:12.347Z,185
2018-05-23T04:22:12.399Z,191
2018-05-23T04:23:12.499Z,196
2018-05-23T04:24:12.443Z,196
2018-05-23T04:25:12.436Z,196
2018-05-23T04:26:12.366Z,196
2018-05-23T04:27:12.349Z,196
2018-05-23T04:28:12.448Z,191
2018-05-23T04:29:12.316Z,191
2018-05-23T04:30:12.502Z,191
2018-05-23T04:31:12.423Z,196
2018-05-23T04:32:12.419Z,202
2018-05-23T04:33:12.472Z,196
2018-05-23T04:34:12.424Z,196
2018-05-23T04:35:12.350Z,196
2018-05-23T04:36:12.423Z,196
2018-05-23T04:37:12.427Z,202
2018-05-23T04:38:12.360Z,202
2018-05-23T04:39:12.488Z,208
2018-05-23T04:40:12.461Z,208
2018-05-23T04:41:12.361Z,213
2018-05-23T04:42:12.423Z,213
2018-05-23T04:43:12.459Z,219
2018-05-23T04:44:12.419Z,219
2018-05-23T04:45:12.486Z,219
2018-05-23T04:46:12.398Z,219
2018-05-23T04:47:12.413Z,219
2018-05-23T04:48:12.484Z,219
2018-05-23T04:49:12.490Z,219
2018-05-23T04:50:12.396Z,225
2018-05-23T04:51:12.462Z,225
2018-05-23T04:52:12.400Z,225
2018-05-23T04:53:12.470Z,230
2018-05-23T04:54:12.426Z,236
2018-05-23T04:55:12.466Z,236
2018-05-23T04:56:12.466Z,241
2018-05-23T04:57:12.474Z,241
2018-05-23T04:58:12.407Z,241
2018-05-23T04:59:12.471Z,241
2018-05-23T05:00:12.406Z,241
2018-05-23T05:01:12.484Z,241
2018-05-23T05:02:12.401Z,241
2018-05-23T05:03:12.472Z,247
2018-05-23T05:04:12.469Z,247
2018-05-23T05:05:12.473Z,253
2018-05-23T05:06:12.475Z,253
2018-05-23T05:07:12.410Z,258
2018-05-23T05:08:12.367Z,270
2018-05-23T05:09:12.408Z,275
2018-05-23T05:10:12.490Z,286
2018-05-23T05:11:12.501Z,298
2018-05-23T05:12:12.383Z,315
2018-05-23T05:13:12.564Z,331
2018-05-23T05:14:12.507Z,348
2018-05-23T05:15:12.505Z,360
2018-05-23T05:16:12.505Z,376
2018-05-23T05:17:12.484Z,399
2018-05-23T05:18:12.479Z,410
2018-05-23T05:19:12.377Z,433
2018-05-23T05:20:12.466Z,455
2018-05-23T05:21:12.478Z,478
2018-05-23T05:22:12.418Z,506
2018-05-23T05:23:12.471Z,523
2018-05-23T05:24:12.436Z,540
2018-05-23T05:25:12.473Z,562
2018-05-23T05:26:12.421Z,579
2018-05-23T05:27:12.422Z,596
2018-05-23T05:28:12.482Z,618
2018-05-23T05:29:12.396Z,635
2018-05-23T05:30:12.414Z,652
2018-05-23T05:31:12.428Z,663
2018-05-23T05:32:12.523Z,691
2018-05-23T05:33:12.469Z,708
2018-05-23T05:34:12.415Z,725
2018-05-23T05:35:12.492Z,742
2018-05-23T05:36:12.524Z,765
2018-05-23T05:37:12.532Z,781
2018-05-23T05:38:12.495Z,804
2018-05-23T05:39:12.495Z,815
2018-05-23T05:40:12.394Z,826
2018-05-23T05:41:12.453Z,838
2018-05-23T05:42:12.531Z,860
2018-05-23T05:43:12.438Z,888
2018-05-23T05:44:12.542Z,911
2018-05-23T05:45:12.397Z,950
2018-05-23T05:46:12.494Z,967
2018-05-23T05:47:12.470Z,990
2018-05-23T05:48:12.499Z,1012
2018-05-23T05:49:12.528Z,1023
2018-05-23T05:50:12.456Z,1035
2018-05-23T05:51:12.543Z,1040
2018-05-23T05:52:12.443Z,1040
2018-05-23T05:53:12.407Z,1046
2018-05-23T05:54:12.481Z,1046
2018-05-23T05:55:12.512Z,1051
2018-05-23T05:56:12.442Z,1057
2018-05-23T05:57:12.542Z,1057
2018-05-23T05:58:12.540Z,1057
2018-05-23T05:59:12.526Z,1051
2018-05-23T06:00:12.508Z,1040
2018-05-23T06:01:12.547Z,1018
2018-05-23T06:02:12.514Z,1001
2018-05-23T06:03:12.507Z,973
2018-05-23T06:04:12.508Z,961
2018-05-23T06:05:12.444Z,956
2018-05-23T06:06:12.514Z,945
2018-05-23T06:07:12.511Z,945
2018-05-23T06:08:12.513Z,945
2018-05-23T06:09:12.515Z,945
2018-05-23T06:10:12.474Z,945
2018-05-23T06:11:12.488Z,945
2018-05-23T06:12:12.526Z,950
2018-05-23T06:13:12.541Z,956
2018-05-23T06:14:12.543Z,961
2018-05-23T06:15:12.551Z,967
2018-05-23T06:16:12.536Z,978
2018-05-23T06:17:12.515Z,995
2018-05-23T06:18:12.524Z,1023
2018-05-23T06:19:12.420Z,1051
2018-05-23T06:20:12.555Z,1080
2018-05-23T06:21:12.457Z,1113
2018-05-23T06:22:12.585Z,1136
2018-05-23T06:23:12.526Z,1147
2018-05-23T06:24:12.522Z,1158
2018-05-23T06:25:12.489Z,1158
2018-05-23T06:26:12.530Z,1158
2018-05-23T06:27:12.460Z,1170
2018-05-23T06:28:12.550Z,1181
2018-05-23T06:29:12.534Z,1198
2018-05-23T06:30:12.450Z,1209
2018-05-23T06:31:12.556Z,1220
2018-05-23T06:32:12.544Z,1231
2018-05-23T06:33:12.563Z,1237
2018-05-23T06:34:12.545Z,1254
2018-05-23T06:35:12.450Z,1271
2018-05-23T06:36:12.516Z,1299
2018-05-23T06:37:12.514Z,1316
2018-05-23T06:38:12.497Z,1344
2018-05-23T06:39:12.498Z,1372
2018-05-23T06:40:12.497Z,1389
2018-05-23T06:41:12.560Z,1411
2018-05-23T06:42:12.580Z,1411
2018-05-23T06:43:12.507Z,1417
2018-05-23T06:44:12.496Z,1428
2018-05-23T06:45:12.559Z,1428
2018-05-23T06:46:12.536Z,1440
2018-05-23T06:47:12.516Z,1451
2018-05-23T06:48:12.462Z,1468
2018-05-23T06:49:12.496Z,1468
2018-05-23T06:50:12.567Z,1479
2018-05-23T06:51:12.506Z,1485
2018-05-23T06:52:12.461Z,1490
2018-05-23T06:53:12.582Z,1490
2018-05-23T06:54:12.462Z,1496
2018-05-23T06:55:12.542Z,1490
2018-05-23T06:56:12.525Z,1479
2018-05-23T06:57:12.449Z,1468
2018-05-23T06:58:12.509Z,1451
2018-05-23T06:59:12.523Z,1445
2018-05-23T07:00:12.547Z,1451
2018-05-23T07:01:12.569Z,1451
2018-05-23T07:02:12.552Z,1451
2018-05-23T07:03:12.523Z,1456
2018-05-23T07:04:12.586Z,1462
2018-05-23T07:05:12.457Z,1451
2018-05-23T07:06:12.526Z,1440
2018-05-23T07:07:12.567Z,1423
2018-05-23T07:08:12.595Z,1428
2018-05-23T07:09:12.459Z,1445
2018-05-23T07:10:12.482Z,1468
2018-05-23T07:11:12.537Z,1468
2018-05-23T07:12:12.535Z,1473
2018-05-23T07:13:12.473Z,1485
2018-05-23T07:14:12.535Z,1501
2018-05-23T07:15:12.628Z,1501
2018-05-23T07:16:12.462Z,1518
2018-05-23T07:17:12.538Z,1524
2018-05-23T07:18:12.643Z,1541
2018-05-23T07:19:12.461Z,1563
2018-05-23T07:20:12.497Z,1591
2018-05-23T07:21:12.551Z,1620
2018-05-23T07:22:12.587Z,1665
2018-05-23T07:23:12.596Z,1665
2018-05-23T07:24:12.579Z,1681
2018-05-23T07:25:12.622Z,1704
2018-05-23T07:26:12.526Z,1749
2018-05-23T07:27:12.589Z,1766
2018-05-23T07:28:12.525Z,1805
2018-05-23T07:29:12.592Z,1839
2018-05-23T07:30:12.464Z,1833
2018-05-23T07:31:12.611Z,1867
2018-05-23T07:32:12.554Z,1878
2018-05-23T07:33:12.534Z,1890
2018-05-23T07:34:12.466Z,1923
2018-05-23T07:35:12.470Z,1935
2018-05-23T07:36:12.492Z,1935
2018-05-23T07:37:12.469Z,1957
2018-05-23T07:38:12.605Z,1957
2018-05-23T07:39:12.487Z,1923
2018-05-23T07:40:12.534Z,1923
2018-05-23T07:41:12.444Z,1946
2018-05-23T07:42:12.471Z,1946
2018-05-23T07:43:12.440Z,1918
2018-05-23T07:44:12.441Z,1923
2018-05-23T07:45:12.507Z,1918
2018-05-23T07:46:12.459Z,1912
2018-05-23T07:47:12.450Z,1895
2018-05-23T07:48:12.510Z,1895
2018-05-23T07:49:12.501Z,1890
2018-05-23T07:50:12.534Z,1890
2018-05-23T07:51:12.599Z,1884
2018-05-23T07:52:12.579Z,1878
2018-05-23T07:53:12.548Z,1878
2018-05-23T07:54:12.621Z,1867
2018-05-23T07:55:12.491Z,1873
2018-05-23T07:56:12.555Z,1856
2018-05-23T07:57:12.557Z,1856
2018-05-23T07:58:12.509Z,1839
2018-05-23T07:59:12.487Z,1828
2018-05-23T08:00:12.524Z,1822
2018-05-23T08:01:12.615Z,1816
2018-05-23T08:02:12.485Z,1811
2018-05-23T08:03:12.550Z,1800
2018-05-23T08:04:12.623Z,1800
2018-05-23T08:05:12.594Z,1794
2018-05-23T08:06:12.551Z,1805
2018-05-23T08:07:12.510Z,1794
2018-05-23T08:08:12.624Z,1800
2018-05-23T08:09:12.616Z,1811
2018-05-23T08:10:12.528Z,1822
2018-05-23T08:11:12.630Z,1833
2018-05-23T08:12:12.489Z,1850
2018-05-23T08:13:12.610Z,1873
2018-05-23T08:14:12.616Z,1912
2018-05-23T08:15:12.571Z,1935
2018-05-23T08:16:12.617Z,1963
2018-05-23T08:17:12.633Z,1985
2018-05-23T08:18:12.616Z,1991
2018-05-23T08:19:12.603Z,2008
2018-05-23T08:20:12.571Z,2025
2018-05-23T08:21:12.498Z,2047
2018-05-23T08:22:12.521Z,2064
2018-05-23T08:23:12.522Z,2103
2018-05-23T08:24:12.623Z,2143
2018-05-23T08:25:12.524Z,2176
2018-05-23T08:26:12.623Z,2233
2018-05-23T08:27:12.575Z,2244
2018-05-23T08:28:12.565Z,2266
2018-05-23T08:29:12.620Z,2300
2018-05-23T08:30:12.507Z,2379
2018-05-23T08:31:12.622Z,2491
2018-05-23T08:32:12.636Z,2638
2018-05-23T08:33:12.629Z,2632
2018-05-23T08:34:12.578Z,2683
2018-05-23T08:35:12.579Z,2598
2018-05-23T08:36:12.528Z,2733
2018-05-23T08:37:12.564Z,2733
2018-05-23T08:38:12.631Z,2739
2018-05-23T08:39:12.632Z,2784
2018-05-23T08:40:12.562Z,2756
2018-05-23T08:41:12.574Z,2790
2018-05-23T08:42:12.562Z,2868
2018-05-23T08:43:12.574Z,2970
2018-05-23T08:44:12.577Z,3020
2018-05-23T08:45:12.569Z,3009
2018-05-23T08:46:12.587Z,3031
2018-05-23T08:47:12.629Z,3121
2018-05-23T08:48:12.637Z,3155
2018-05-23T08:49:12.576Z,3138
2018-05-23T08:50:12.629Z,3121
2018-05-23T08:51:12.637Z,3155
2018-05-23T08:52:12.656Z,3211
2018-05-23T08:53:12.654Z,3273
2018-05-23T08:54:12.646Z,3341
2018-05-23T08:55:12.644Z,3335
2018-05-23T08:56:12.699Z,3543
2018-05-23T08:57:12.639Z,3571
2018-05-23T08:58:12.590Z,3583
2018-05-23T08:59:12.667Z,3363
2018-05-23T09:00:12.657Z,3695
2018-05-23T09:01:12.596Z,3813
2018-05-23T09:02:12.597Z,3605
2018-05-23T09:03:12.650Z,3183
2018-05-23T09:04:12.590Z,2947
2018-05-23T09:05:12.609Z,2655
2018-05-23T09:06:12.607Z,2587
2018-05-23T09:07:12.631Z,2638
2018-05-23T09:08:12.661Z,2576
2018-05-23T09:09:12.623Z,2615
2018-05-23T09:10:12.537Z,2728
2018-05-23T09:11:12.645Z,2874
2018-05-23T09:12:12.748Z,3020
2018-05-23T09:13:12.533Z,3476
2018-05-23T09:14:12.534Z,3706
2018-05-23T09:15:12.602Z,3881
2018-05-23T09:16:12.656Z,3915
2018-05-23T09:17:12.593Z,3864
2018-05-23T09:18:12.597Z,4128
2018-05-23T09:19:12.613Z,4331
2018-05-23T09:20:12.540Z,4275
2018-05-23T09:21:12.601Z,4387
2018-05-23T09:22:12.675Z,4449
2018-05-23T09:23:12.536Z,4303
2018-05-23T09:24:12.655Z,3993
2018-05-23T09:25:12.674Z,3903
2018-05-23T09:26:12.657Z,3864
2018-05-23T09:27:12.680Z,3487
2018-05-23T09:28:12.578Z,3780
2018-05-23T09:29:12.668Z,3560
2018-05-23T09:30:12.549Z,3903
2018-05-23T09:31:12.550Z,4303
2018-05-23T09:32:12.710Z,4207
2018-05-23T09:33:12.620Z,3341
2018-05-23T09:34:12.659Z,3577
2018-05-23T09:35:12.543Z,4095
2018-05-23T09:36:12.556Z,4393
2018-05-23T09:37:12.552Z,4241
2018-05-23T09:38:12.645Z,4443
2018-05-23T09:39:12.739Z,4303
2018-05-23T09:40:12.644Z,3735
2018-05-23T09:41:12.571Z,4033
2018-05-23T09:42:12.666Z,4027
2018-05-23T09:43:12.622Z,4151
2018-05-23T09:44:12.677Z,3796
2018-05-23T09:45:12.729Z,4303
2018-05-23T09:46:12.652Z,4561
2018-05-23T09:47:12.681Z,4803
2018-05-23T09:48:12.678Z,4871
2018-05-23T09:49:12.557Z,4837
2018-05-23T09:50:12.581Z,5175
2018-05-23T09:51:12.552Z,5388
2018-05-23T09:52:12.614Z,5130
2018-05-23T09:53:12.677Z,4792
2018-05-23T09:54:12.641Z,4623
2018-05-23T09:55:12.747Z,4916
2018-05-23T09:56:12.565Z,5135
2018-05-23T09:57:12.697Z,5281
2018-05-23T09:58:12.659Z,4696
2018-05-23T09:59:12.699Z,3386
2018-05-23T10:00:12.606Z,3256
2018-05-23T10:01:12.687Z,3183
2018-05-23T10:02:12.554Z,3678
2018-05-23T10:03:12.625Z,3960
2018-05-23T10:04:12.624Z,4438
2018-05-23T10:05:12.702Z,4314
2018-05-23T10:06:12.704Z,4263
2018-05-23T10:07:12.639Z,4584
2018-05-23T10:08:12.631Z,4308
2018-05-23T10:09:12.694Z,4500
2018-05-23T10:10:12.638Z,3341
2018-05-23T10:11:12.631Z,4381
2018-05-23T10:12:12.704Z,4556
2018-05-23T10:13:12.703Z,4320
2018-05-23T10:14:12.719Z,4421
2018-05-23T10:15:12.645Z,4528
2018-05-23T10:16:12.676Z,4500
2018-05-23T10:17:12.571Z,4297
2018-05-23T10:18:12.651Z,4488
2018-05-23T10:19:12.608Z,4573
2018-05-23T10:20:12.702Z,4516
2018-05-23T10:21:12.608Z,4331
2018-05-23T10:22:12.772Z,4297
2018-05-23T10:23:12.602Z,4005
2018-05-23T10:24:12.676Z,4376
2018-05-23T10:25:12.606Z,4235
2018-05-23T10:26:12.605Z,4545
2018-05-23T10:27:12.683Z,4831
2018-05-23T10:28:12.679Z,4269
2018-05-23T10:29:12.613Z,4798
2018-05-23T10:30:12.567Z,4888
2018-05-23T10:31:12.668Z,5023
2018-05-23T10:32:12.669Z,3830
2018-05-23T10:33:12.551Z,3481
2018-05-23T10:34:12.625Z,3577
2018-05-23T10:35:12.572Z,4336
2018-05-23T10:36:12.668Z,4629
2018-05-23T10:37:12.670Z,4854
2018-05-23T10:38:12.682Z,4933
2018-05-23T10:39:12.784Z,5158
2018-05-23T10:40:12.595Z,5051
2018-05-23T10:41:12.551Z,5011
2018-05-23T10:42:12.579Z,4764
2018-05-23T10:43:12.642Z,4691
2018-05-23T10:44:12.561Z,4500
2018-05-23T10:45:12.553Z,4348
2018-05-23T10:46:12.598Z,4072
2018-05-23T10:47:12.678Z,4578
2018-05-23T10:48:12.618Z,4865
2018-05-23T10:49:12.597Z,5259
2018-05-23T10:50:12.642Z,4764
2018-05-23T10:51:12.676Z,4612
2018-05-23T10:52:12.656Z,5028
2018-05-23T10:53:12.600Z,5034
2018-05-23T10:54:12.694Z,3116
2018-05-23T10:55:12.722Z,5540
2018-05-23T10:56:12.677Z,5625
2018-05-23T10:57:12.750Z,5681
2018-05-23T10:58:12.715Z,5428
2018-05-23T10:59:12.666Z,2694
2018-05-23T11:00:12.794Z,5040
2018-05-23T11:01:12.726Z,5220
2018-05-23T11:02:12.704Z,4241
2018-05-23T11:03:12.733Z,2767
2018-05-23T11:04:12.744Z,4893
2018-05-23T11:05:12.741Z,5090
2018-05-23T11:06:12.626Z,5068
2018-05-23T11:07:12.627Z,2643
2018-05-23T11:08:12.683Z,4989
2018-05-23T11:09:12.668Z,4725
2018-05-23T11:10:12.613Z,2655
2018-05-23T11:12:12.713Z,5805
2018-05-23T11:13:12.729Z,5788
2018-05-23T11:14:12.668Z,2671
2018-05-23T11:15:12.696Z,2385
2018-05-23T11:16:12.738Z,2553
2018-05-23T11:17:12.744Z,5698
2018-05-23T11:18:12.679Z,4550
2018-05-23T11:19:12.669Z,5895
2018-05-23T11:20:12.694Z,6041
2018-05-23T11:21:12.716Z,6041
2018-05-23T11:22:12.750Z,6018
2018-05-23T11:23:12.716Z,6001
2018-05-23T11:24:12.688Z,5934
2018-05-23T11:25:12.687Z,5855
2018-05-23T11:26:12.753Z,5748
2018-05-23T11:27:12.679Z,5799
2018-05-23T11:28:12.619Z,5866
2018-05-23T11:29:12.677Z,5872
2018-05-23T11:30:12.689Z,5653
2018-05-23T11:31:12.658Z,5658
2018-05-23T11:32:12.700Z,5568
2018-05-23T11:33:12.747Z,5653
2018-05-23T11:34:12.625Z,5557
2018-05-23T11:35:12.754Z,5484
2018-05-23T11:36:12.725Z,2660
2018-05-23T11:37:12.634Z,5748
2018-05-23T11:38:12.682Z,5641
2018-05-23T11:39:12.701Z,5568
2018-05-23T11:40:12.685Z,5343
2018-05-23T11:41:12.660Z,4826
2018-05-23T11:42:12.730Z,3397
2018-05-23T11:43:12.666Z,2863
2018-05-23T11:44:12.731Z,5450
2018-05-23T11:45:12.729Z,5461
2018-05-23T11:46:12.728Z,2475
2018-05-23T11:47:12.733Z,5411
2018-05-23T11:48:12.674Z,4303
2018-05-23T11:49:12.732Z,2081
2018-05-23T11:50:12.691Z,1974
2018-05-23T11:51:12.694Z,1996
2018-05-23T11:52:12.729Z,2075
2018-05-23T11:53:12.754Z,3796
2018-05-23T11:54:12.638Z,1901
2018-05-23T11:55:12.717Z,1861
2018-05-23T11:56:12.655Z,1895
2018-05-23T11:57:12.706Z,1991
2018-05-23T11:58:12.773Z,2199
2018-05-23T11:59:12.741Z,2418
2018-05-23T12:00:12.651Z,5743
2018-05-23T12:01:12.772Z,5625
2018-05-23T12:02:12.774Z,5670
2018-05-23T12:03:12.713Z,5731
2018-05-23T12:04:12.763Z,5861
2018-05-23T12:05:12.647Z,5923
2018-05-23T12:06:12.701Z,5968
2018-05-23T12:07:12.788Z,5940
2018-05-23T12:08:12.714Z,5895
2018-05-23T12:09:12.711Z,2413
2018-05-23T12:10:12.761Z,5805
2018-05-23T12:11:12.748Z,5743
2018-05-23T12:12:12.681Z,5490
2018-05-23T12:13:12.749Z,5501
2018-05-23T12:14:12.746Z,2424
2018-05-23T12:15:12.686Z,3105
2018-05-23T12:16:12.680Z,2452
2018-05-23T12:17:12.682Z,2334
2018-05-23T12:18:12.753Z,2761
2018-05-23T12:19:12.683Z,5118
2018-05-23T12:20:12.752Z,2171
2018-05-23T12:21:12.652Z,2531
2018-05-23T12:22:12.751Z,5231
2018-05-23T12:23:12.752Z,5321
2018-05-23T12:24:12.683Z,1929
2018-05-23T12:25:12.690Z,1755
2018-05-23T12:26:12.761Z,1710
2018-05-23T12:27:12.683Z,1766
2018-05-23T12:28:12.756Z,5214
2018-05-23T12:29:12.688Z,5394
2018-05-23T12:30:12.764Z,5315
2018-05-23T12:31:12.765Z,5281
2018-05-23T12:32:12.693Z,4033
2018-05-23T12:33:12.772Z,5169
2018-05-23T12:34:12.708Z,5169
2018-05-23T12:35:12.695Z,4989
2018-05-23T12:36:12.762Z,4809
2018-05-23T12:37:12.695Z,4635
2018-05-23T12:38:12.761Z,4545
2018-05-23T12:39:12.723Z,4539
2018-05-23T12:40:12.769Z,4798
2018-05-23T12:41:12.741Z,4646
2018-05-23T12:42:12.740Z,4595
2018-05-23T12:43:12.749Z,4741
2018-05-23T12:44:12.765Z,4702
2018-05-23T12:45:12.689Z,4848
2018-05-23T12:46:12.774Z,4882
2018-05-23T12:47:12.789Z,4871
2018-05-23T12:48:12.746Z,4820
2018-05-23T12:49:12.810Z,4809
2018-05-23T12:50:12.681Z,4747
2018-05-23T12:51:12.677Z,4595
2018-05-23T12:52:12.799Z,4635
2018-05-23T12:53:12.810Z,4606
2018-05-23T12:54:12.752Z,4753
2018-05-23T12:55:12.749Z,4606
2018-05-23T12:56:12.737Z,4680
2018-05-23T12:57:12.736Z,4781
2018-05-23T12:58:12.676Z,4843
2018-05-23T12:59:12.773Z,4775
2018-05-23T13:00:12.812Z,4685
2018-05-23T13:01:12.731Z,4888
2018-05-23T13:02:12.755Z,4921
2018-05-23T13:03:12.756Z,4933
2018-05-23T13:04:12.824Z,4961
2018-05-23T13:05:12.777Z,4815
2018-05-23T13:06:12.751Z,4798
2018-05-23T13:07:12.807Z,4770
2018-05-23T13:08:12.740Z,4719
2018-05-23T13:09:12.739Z,4702
2018-05-23T13:10:12.740Z,4708
2018-05-23T13:11:12.715Z,4651
2018-05-23T13:12:12.788Z,4646
2018-05-23T13:13:12.722Z,4623
2018-05-23T13:14:12.750Z,4629
2018-05-23T13:15:12.718Z,4668
2018-05-23T13:16:12.721Z,4657
2018-05-23T13:17:12.829Z,4708
2018-05-23T13:18:12.789Z,4713
2018-05-23T13:19:12.747Z,4775
2018-05-23T13:20:12.790Z,4736
2018-05-23T13:21:12.725Z,4792
2018-05-23T13:22:12.724Z,4865
2018-05-23T13:23:12.723Z,4854
2018-05-23T13:24:12.791Z,4854
2018-05-23T13:25:12.729Z,4905
2018-05-23T13:26:12.729Z,4888
2018-05-23T13:27:12.729Z,4876
2018-05-23T13:28:12.765Z,4860
2018-05-23T13:29:12.799Z,4871
2018-05-23T13:30:12.727Z,4899
2018-05-23T13:31:12.754Z,5000
2018-05-23T13:32:12.818Z,5006
2018-05-23T13:33:12.836Z,4871
2018-05-23T13:34:12.832Z,4747
2018-05-23T13:35:12.819Z,4680
2018-05-23T13:36:12.774Z,4567
2018-05-23T13:37:12.703Z,4556
2018-05-23T13:38:12.709Z,4556
2018-05-23T13:39:12.711Z,4342
2018-05-23T13:40:12.821Z,4291
2018-05-23T13:41:12.844Z,4162
2018-05-23T13:42:12.763Z,4044
2018-05-23T13:43:12.731Z,3954
2018-05-23T13:44:12.762Z,3481
2018-05-23T13:45:12.785Z,3566
2018-05-23T13:46:12.778Z,3712